sensor_id;sensor_type;location;lat;lon;timestamp;P1;durP1;ratioP1;P2;durP2;ratioP2
51692;SDS011;37777;53.066;21.638;2023-07-30T00:00:55;12.23;;;11.38;;
51692;SDS011;37777;53.066;21.638;2023-07-30T00:07:57;12.82;;;11.75;;
51692;SDS011;37777;53.066;21.638;2023-07-30T00:14:59;13.80;;;12.70;;
51692;SDS011;37777;53.066;21.638;2023-07-30T00:22:01;13.43;;;12.30;;
51692;SDS011;37777;53.066;21.638;2023-07-30T00:29:04;13.48;;;12.35;;
51692;SDS011;37777;53.066;21.638;2023-07-30T00:36:06;12.57;;;11.77;;
51692;SDS011;37777;53.066;21.638;2023-07-30T00:43:08;13.75;;;12.63;;
51692;SDS011;37777;53.066;21.638;2023-07-30T00:50:10;12.57;;;11.77;;
51692;SDS011;37777;53.066;21.638;2023-07-30T00:57:15;12.68;;;11.88;;
51692;SDS011;37777;53.066;21.638;2023-07-30T01:04:20;13.07;;;12.07;;
51692;SDS011;37777;53.066;21.638;2023-07-30T01:11:23;13.23;;;12.32;;
51692;SDS011;37777;53.066;21.638;2023-07-30T01:18:25;13.43;;;12.35;;
51692;SDS011;37777;53.066;21.638;2023-07-30T01:25:28;14.07;;;12.95;;
51692;SDS011;37777;53.066;21.638;2023-07-30T01:32:35;13.38;;;12.38;;
51692;SDS011;37777;53.066;21.638;2023-07-30T01:39:39;13.18;;;12.25;;
51692;SDS011;37777;53.066;21.638;2023-07-30T01:46:44;13.02;;;12.02;;
51692;SDS011;37777;53.066;21.638;2023-07-30T01:53:46;13.90;;;13.00;;
51692;SDS011;37777;53.066;21.638;2023-07-30T02:00:48;14.13;;;12.93;;
51692;SDS011;37777;53.066;21.638;2023-07-30T02:07:50;13.57;;;12.57;;
51692;SDS011;37777;53.066;21.638;2023-07-30T02:14:52;14.18;;;13.10;;
51692;SDS011;37777;53.066;21.638;2023-07-30T02:21:54;14.90;;;13.38;;
51692;SDS011;37777;53.066;21.638;2023-07-30T02:28:56;13.82;;;12.70;;
51692;SDS011;37777;53.066;21.638;2023-07-30T02:36:01;14.40;;;13.30;;
51692;SDS011;37777;53.066;21.638;2023-07-30T02:43:03;14.52;;;13.40;;
51692;SDS011;37777;53.066;21.638;2023-07-30T02:50:06;13.88;;;12.77;;
51692;SDS011;37777;53.066;21.638;2023-07-30T02:57:08;13.18;;;12.13;;
51692;SDS011;37777;53.066;21.638;2023-07-30T03:04:10;14.27;;;13.27;;
51692;SDS011;37777;53.066;21.638;2023-07-30T03:11:12;13.85;;;12.82;;
51692;SDS011;37777;53.066;21.638;2023-07-30T03:18:15;13.93;;;12.82;;
51692;SDS011;37777;53.066;21.638;2023-07-30T03:25:17;12.63;;;11.73;;
51692;SDS011;37777;53.066;21.638;2023-07-30T03:32:19;14.35;;;13.25;;
51692;SDS011;37777;53.066;21.638;2023-07-30T03:39:21;14.77;;;13.68;;
51692;SDS011;37777;53.066;21.638;2023-07-30T03:46:23;15.25;;;14.07;;
51692;SDS011;37777;53.066;21.638;2023-07-30T03:53:25;15.23;;;14.13;;
51692;SDS011;37777;53.066;21.638;2023-07-30T04:00:27;15.70;;;14.30;;
51692;SDS011;37777;53.066;21.638;2023-07-30T04:07:31;15.85;;;14.60;;
51692;SDS011;37777;53.066;21.638;2023-07-30T04:14:33;15.55;;;14.30;;
51692;SDS011;37777;53.066;21.638;2023-07-30T04:21:35;15.65;;;14.45;;
51692;SDS011;37777;53.066;21.638;2023-07-30T04:28:37;15.65;;;14.27;;
51692;SDS011;37777;53.066;21.638;2023-07-30T04:35:40;15.63;;;14.20;;
51692;SDS011;37777;53.066;21.638;2023-07-30T04:42:42;15.70;;;14.40;;
51692;SDS011;37777;53.066;21.638;2023-07-30T04:49:44;16.33;;;14.93;;
51692;SDS011;37777;53.066;21.638;2023-07-30T04:56:46;15.13;;;13.93;;
51692;SDS011;37777;53.066;21.638;2023-07-30T05:03:48;15.20;;;13.90;;
51692;SDS011;37777;53.066;21.638;2023-07-30T05:10:50;14.73;;;13.73;;
51692;SDS011;37777;53.066;21.638;2023-07-30T05:17:53;13.60;;;12.70;;
51692;SDS011;37777;53.066;21.638;2023-07-30T05:24:55;14.32;;;13.20;;
51692;SDS011;37777;53.066;21.638;2023-07-30T05:31:57;14.15;;;13.07;;
51692;SDS011;37777;53.066;21.638;2023-07-30T05:38:59;14.00;;;13.00;;
51692;SDS011;37777;53.066;21.638;2023-07-30T05:46:01;14.57;;;13.27;;
51692;SDS011;37777;53.066;21.638;2023-07-30T05:53:03;12.65;;;11.45;;
51692;SDS011;37777;53.066;21.638;2023-07-30T06:00:06;12.48;;;11.60;;
51692;SDS011;37777;53.066;21.638;2023-07-30T06:07:08;12.20;;;11.27;;
51692;SDS011;37777;53.066;21.638;2023-07-30T06:14:10;12.77;;;11.85;;
51692;SDS011;37777;53.066;21.638;2023-07-30T06:21:13;13.75;;;12.60;;
51692;SDS011;37777;53.066;21.638;2023-07-30T06:28:15;14.90;;;13.90;;
51692;SDS011;37777;53.066;21.638;2023-07-30T06:35:17;13.43;;;12.32;;
51692;SDS011;37777;53.066;21.638;2023-07-30T06:42:19;14.45;;;13.35;;
51692;SDS011;37777;53.066;21.638;2023-07-30T06:49:21;12.88;;;11.80;;
51692;SDS011;37777;53.066;21.638;2023-07-30T06:56:24;13.38;;;12.18;;
51692;SDS011;37777;53.066;21.638;2023-07-30T07:03:26;12.40;;;11.52;;
51692;SDS011;37777;53.066;21.638;2023-07-30T07:10:30;12.95;;;11.95;;
51692;SDS011;37777;53.066;21.638;2023-07-30T07:17:32;13.30;;;12.40;;
51692;SDS011;37777;53.066;21.638;2023-07-30T07:24:38;12.80;;;11.70;;
51692;SDS011;37777;53.066;21.638;2023-07-30T07:31:44;13.00;;;12.00;;
51692;SDS011;37777;53.066;21.638;2023-07-30T07:38:49;12.35;;;11.35;;
51692;SDS011;37777;53.066;21.638;2023-07-30T07:53:02;13.38;;;12.48;;
51692;SDS011;37777;53.066;21.638;2023-07-30T08:00:06;13.23;;;12.27;;
51692;SDS011;37777;53.066;21.638;2023-07-30T08:07:10;13.45;;;12.35;;
51692;SDS011;37777;53.066;21.638;2023-07-30T08:14:16;13.02;;;12.13;;
51692;SDS011;37777;53.066;21.638;2023-07-30T08:21:27;13.70;;;12.65;;
51692;SDS011;37777;53.066;21.638;2023-07-30T08:28:31;13.60;;;12.60;;
51692;SDS011;37777;53.066;21.638;2023-07-30T08:35:34;13.15;;;12.25;;
51692;SDS011;37777;53.066;21.638;2023-07-30T08:42:39;12.93;;;12.02;;
51692;SDS011;37777;53.066;21.638;2023-07-30T08:49:43;14.18;;;13.00;;
51692;SDS011;37777;53.066;21.638;2023-07-30T08:56:49;14.98;;;13.63;;
51692;SDS011;37777;53.066;21.638;2023-07-30T09:03:55;14.05;;;12.60;;
51692;SDS011;37777;53.066;21.638;2023-07-30T09:11:09;14.77;;;13.65;;
51692;SDS011;37777;53.066;21.638;2023-07-30T09:18:19;14.50;;;13.10;;
51692;SDS011;37777;53.066;21.638;2023-07-30T09:25:23;14.00;;;12.80;;
51692;SDS011;37777;53.066;21.638;2023-07-30T09:32:30;14.02;;;12.93;;
51692;SDS011;37777;53.066;21.638;2023-07-30T09:39:42;13.65;;;12.65;;
51692;SDS011;37777;53.066;21.638;2023-07-30T09:46:51;13.80;;;12.80;;
51692;SDS011;37777;53.066;21.638;2023-07-30T09:53:57;14.05;;;13.05;;
51692;SDS011;37777;53.066;21.638;2023-07-30T10:01:01;14.27;;;13.13;;
51692;SDS011;37777;53.066;21.638;2023-07-30T10:08:08;12.90;;;12.00;;
51692;SDS011;37777;53.066;21.638;2023-07-30T10:15:17;16.27;;;13.50;;
51692;SDS011;37777;53.066;21.638;2023-07-30T10:22:25;13.95;;;12.95;;
51692;SDS011;37777;53.066;21.638;2023-07-30T10:29:29;14.10;;;13.10;;
51692;SDS011;37777;53.066;21.638;2023-07-30T10:36:36;14.90;;;13.68;;
51692;SDS011;37777;53.066;21.638;2023-07-30T10:43:50;13.07;;;12.18;;
51692;SDS011;37777;53.066;21.638;2023-07-30T10:50:53;13.48;;;12.38;;
51692;SDS011;37777;53.066;21.638;2023-07-30T10:57:57;14.07;;;12.70;;
51692;SDS011;37777;53.066;21.638;2023-07-30T11:05:13;14.57;;;13.48;;
51692;SDS011;37777;53.066;21.638;2023-07-30T11:12:19;15.30;;;13.95;;
51692;SDS011;37777;53.066;21.638;2023-07-30T11:19:29;15.00;;;13.80;;
51692;SDS011;37777;53.066;21.638;2023-07-30T11:26:37;14.80;;;13.70;;
51692;SDS011;37777;53.066;21.638;2023-07-30T11:33:43;15.68;;;14.07;;
51692;SDS011;37777;53.066;21.638;2023-07-30T11:40:53;15.23;;;14.00;;
51692;SDS011;37777;53.066;21.638;2023-07-30T11:48:07;15.13;;;14.02;;
51692;SDS011;37777;53.066;21.638;2023-07-30T11:55:16;13.98;;;12.98;;
51692;SDS011;37777;53.066;21.638;2023-07-30T12:02:23;15.38;;;14.27;;
51692;SDS011;37777;53.066;21.638;2023-07-30T12:09:28;14.95;;;13.85;;
51692;SDS011;37777;53.066;21.638;2023-07-30T12:16:40;14.40;;;13.32;;
51692;SDS011;37777;53.066;21.638;2023-07-30T12:23:44;13.95;;;13.00;;
51692;SDS011;37777;53.066;21.638;2023-07-30T12:30:58;14.30;;;13.20;;
51692;SDS011;37777;53.066;21.638;2023-07-30T12:38:04;14.73;;;13.45;;
51692;SDS011;37777;53.066;21.638;2023-07-30T12:45:09;14.90;;;13.40;;
51692;SDS011;37777;53.066;21.638;2023-07-30T12:52:14;14.88;;;13.82;;
51692;SDS011;37777;53.066;21.638;2023-07-30T12:59:20;14.23;;;13.20;;
51692;SDS011;37777;53.066;21.638;2023-07-30T13:06:24;13.77;;;12.85;;
51692;SDS011;37777;53.066;21.638;2023-07-30T13:13:30;13.50;;;12.30;;
51692;SDS011;37777;53.066;21.638;2023-07-30T13:20:38;13.18;;;11.95;;
51692;SDS011;37777;53.066;21.638;2023-07-30T13:27:41;12.73;;;11.82;;
51692;SDS011;37777;53.066;21.638;2023-07-30T13:34:46;12.95;;;11.95;;
51692;SDS011;37777;53.066;21.638;2023-07-30T13:41:51;13.05;;;12.15;;
51692;SDS011;37777;53.066;21.638;2023-07-30T13:49:02;13.18;;;12.25;;
51692;SDS011;37777;53.066;21.638;2023-07-30T13:56:13;13.50;;;12.50;;
51692;SDS011;37777;53.066;21.638;2023-07-30T14:03:22;13.65;;;12.70;;
51692;SDS011;37777;53.066;21.638;2023-07-30T14:10:34;14.48;;;13.38;;
51692;SDS011;37777;53.066;21.638;2023-07-30T14:17:39;14.63;;;13.52;;
51692;SDS011;37777;53.066;21.638;2023-07-30T14:24:44;13.77;;;12.88;;
51692;SDS011;37777;53.066;21.638;2023-07-30T14:31:50;14.13;;;13.13;;
51692;SDS011;37777;53.066;21.638;2023-07-30T14:38:55;14.23;;;13.23;;
51692;SDS011;37777;53.066;21.638;2023-07-30T14:46:02;13.98;;;13.02;;
51692;SDS011;37777;53.066;21.638;2023-07-30T14:53:07;13.75;;;12.70;;
51692;SDS011;37777;53.066;21.638;2023-07-30T15:00:14;14.02;;;12.98;;
51692;SDS011;37777;53.066;21.638;2023-07-30T15:07:20;14.77;;;13.55;;
51692;SDS011;37777;53.066;21.638;2023-07-30T15:14:29;14.40;;;13.40;;
51692;SDS011;37777;53.066;21.638;2023-07-30T15:21:35;15.57;;;14.47;;
51692;SDS011;37777;53.066;21.638;2023-07-30T15:28:43;14.93;;;13.93;;
51692;SDS011;37777;53.066;21.638;2023-07-30T15:35:50;15.18;;;14.07;;
51692;SDS011;37777;53.066;21.638;2023-07-30T15:42:54;15.25;;;14.07;;
51692;SDS011;37777;53.066;21.638;2023-07-30T15:50:00;14.70;;;13.60;;
51692;SDS011;37777;53.066;21.638;2023-07-30T15:57:08;15.87;;;14.67;;
51692;SDS011;37777;53.066;21.638;2023-07-30T16:04:14;14.35;;;13.13;;
51692;SDS011;37777;53.066;21.638;2023-07-30T16:11:18;15.55;;;14.35;;
51692;SDS011;37777;53.066;21.638;2023-07-30T16:18:38;14.30;;;13.30;;
51692;SDS011;37777;53.066;21.638;2023-07-30T16:25:45;14.77;;;13.77;;
51692;SDS011;37777;53.066;21.638;2023-07-30T16:32:51;15.60;;;14.40;;
51692;SDS011;37777;53.066;21.638;2023-07-30T16:39:56;15.18;;;14.07;;
51692;SDS011;37777;53.066;21.638;2023-07-30T16:47:00;15.15;;;13.98;;
51692;SDS011;37777;53.066;21.638;2023-07-30T16:54:09;15.27;;;14.18;;
51692;SDS011;37777;53.066;21.638;2023-07-30T17:01:14;15.18;;;14.05;;
51692;SDS011;37777;53.066;21.638;2023-07-30T17:08:20;15.15;;;13.90;;
51692;SDS011;37777;53.066;21.638;2023-07-30T17:15:25;15.27;;;14.07;;
51692;SDS011;37777;53.066;21.638;2023-07-30T17:22:30;15.50;;;14.20;;
51692;SDS011;37777;53.066;21.638;2023-07-30T17:29:41;14.68;;;13.57;;
51692;SDS011;37777;53.066;21.638;2023-07-30T17:36:46;15.45;;;14.18;;
51692;SDS011;37777;53.066;21.638;2023-07-30T17:43:50;15.52;;;14.23;;
51692;SDS011;37777;53.066;21.638;2023-07-30T17:50:55;14.18;;;13.18;;
51692;SDS011;37777;53.066;21.638;2023-07-30T17:58:01;15.20;;;14.00;;
51692;SDS011;37777;53.066;21.638;2023-07-30T18:05:13;19.55;;;15.85;;
51692;SDS011;37777;53.066;21.638;2023-07-30T18:12:22;21.60;;;15.60;;
51692;SDS011;37777;53.066;21.638;2023-07-30T18:19:31;16.33;;;14.73;;
51692;SDS011;37777;53.066;21.638;2023-07-30T18:26:39;15.63;;;13.93;;
51692;SDS011;37777;53.066;21.638;2023-07-30T18:33:44;15.57;;;13.90;;
51692;SDS011;37777;53.066;21.638;2023-07-30T18:40:54;13.90;;;12.68;;
51692;SDS011;37777;53.066;21.638;2023-07-30T18:48:03;14.20;;;12.95;;
51692;SDS011;37777;53.066;21.638;2023-07-30T18:55:06;14.73;;;13.18;;
51692;SDS011;37777;53.066;21.638;2023-07-30T19:02:11;14.50;;;13.10;;
51692;SDS011;37777;53.066;21.638;2023-07-30T19:09:16;14.02;;;12.85;;
51692;SDS011;37777;53.066;21.638;2023-07-30T19:16:20;13.93;;;12.70;;
51692;SDS011;37777;53.066;21.638;2023-07-30T19:23:24;13.20;;;12.10;;
51692;SDS011;37777;53.066;21.638;2023-07-30T19:30:29;14.57;;;13.32;;
51692;SDS011;37777;53.066;21.638;2023-07-30T19:37:33;14.13;;;12.40;;
51692;SDS011;37777;53.066;21.638;2023-07-30T19:44:38;14.95;;;13.15;;
51692;SDS011;37777;53.066;21.638;2023-07-30T19:51:45;14.43;;;13.10;;
51692;SDS011;37777;53.066;21.638;2023-07-30T19:58:48;13.88;;;12.68;;
51692;SDS011;37777;53.066;21.638;2023-07-30T20:06:00;13.95;;;12.75;;
51692;SDS011;37777;53.066;21.638;2023-07-30T20:20:20;14.68;;;13.38;;
51692;SDS011;37777;53.066;21.638;2023-07-30T20:27:23;13.98;;;12.77;;
51692;SDS011;37777;53.066;21.638;2023-07-30T20:34:27;14.20;;;13.00;;
51692;SDS011;37777;53.066;21.638;2023-07-30T20:41:32;14.93;;;13.63;;
51692;SDS011;37777;53.066;21.638;2023-07-30T20:48:34;13.98;;;12.88;;
51692;SDS011;37777;53.066;21.638;2023-07-30T20:55:39;14.80;;;13.63;;
51692;SDS011;37777;53.066;21.638;2023-07-30T21:02:43;14.90;;;13.70;;
51692;SDS011;37777;53.066;21.638;2023-07-30T21:09:50;14.55;;;13.45;;
51692;SDS011;37777;53.066;21.638;2023-07-30T21:16:58;14.40;;;13.00;;
51692;SDS011;37777;53.066;21.638;2023-07-30T21:24:04;14.70;;;13.50;;
51692;SDS011;37777;53.066;21.638;2023-07-30T21:31:09;14.77;;;13.32;;
51692;SDS011;37777;53.066;21.638;2023-07-30T21:38:12;14.73;;;13.25;;
51692;SDS011;37777;53.066;21.638;2023-07-30T21:45:14;15.05;;;13.75;;
51692;SDS011;37777;53.066;21.638;2023-07-30T21:52:28;15.00;;;13.70;;
51692;SDS011;37777;53.066;21.638;2023-07-30T21:59:34;16.00;;;14.65;;
51692;SDS011;37777;53.066;21.638;2023-07-30T22:06:36;16.25;;;14.82;;
51692;SDS011;37777;53.066;21.638;2023-07-30T22:13:39;16.20;;;14.70;;
51692;SDS011;37777;53.066;21.638;2023-07-30T22:20:41;16.25;;;14.70;;
51692;SDS011;37777;53.066;21.638;2023-07-30T22:27:43;16.95;;;15.55;;
51692;SDS011;37777;53.066;21.638;2023-07-30T22:35:05;17.40;;;15.70;;
51692;SDS011;37777;53.066;21.638;2023-07-30T22:42:07;17.58;;;15.82;;
51692;SDS011;37777;53.066;21.638;2023-07-30T22:49:09;17.83;;;16.13;;
51692;SDS011;37777;53.066;21.638;2023-07-30T22:56:11;17.55;;;15.77;;
51692;SDS011;37777;53.066;21.638;2023-07-30T23:03:13;17.30;;;15.68;;
51692;SDS011;37777;53.066;21.638;2023-07-30T23:10:17;16.30;;;14.90;;
51692;SDS011;37777;53.066;21.638;2023-07-30T23:17:21;16.08;;;14.80;;
51692;SDS011;37777;53.066;21.638;2023-07-30T23:24:23;15.48;;;14.25;;
51692;SDS011;37777;53.066;21.638;2023-07-30T23:31:26;14.35;;;13.32;;
51692;SDS011;37777;53.066;21.638;2023-07-30T23:38:28;14.02;;;12.93;;
51692;SDS011;37777;53.066;21.638;2023-07-30T23:45:30;14.15;;;13.10;;
51692;SDS011;37777;53.066;21.638;2023-07-30T23:52:32;12.82;;;11.93;;
51692;SDS011;37777;53.066;21.638;2023-07-30T23:59:34;13.20;;;12.20;;
